<?xml version="1.0" encoding="UTF-8"?>
<gpx version="1.0" creator="Trackator" xmlns:xsi="http://www.w3.org/2001/XMLSchema-instance" xmlns="http://www.topografix.com/GPX/1/0" xmlns:topografix="http://www.topografix.com/GPX/Private/TopoGrafix/0/1" xsi:schemaLocation="http://www.topografix.com/GPX/1/0 http://www.topografix.com/GPX/1/0/gpx.xsd http://www.topografix.com/GPX/Private/TopoGrafix/0/1 http://www.topografix.com/GPX/Private/TopoGrafix/0/1/topografix.xsd">
<metadata>
<link href="http://www.trackalia.com/trackatorweb.php">
<text>Trackator</text>
</link>
</metadata>
<time>2017-10-08T14:16:13Z</time>
<trk>
<name>Track: </name>
<desc></desc>
<trkseg>
<trkpt lat="54.0078932" lon="15.9781996">
<ele>77</ele>
<time>2017-10-08T14:16:13Z</time>
</trkpt>
<trkpt lat="54.0078932" lon="15.9781996">
<ele>77</ele>
<time>2017-10-08T14:16:19Z</time>
</trkpt>
<trkpt lat="54.0078932" lon="15.9781996">
<ele>77</ele>
<time>2017-10-08T14:16:25Z</time>
</trkpt>
<trkpt lat="54.0078932" lon="15.9781996">
<ele>77</ele>
<time>2017-10-08T14:16:31Z</time>
</trkpt>
<trkpt lat="54.0078932" lon="15.9781996">
<ele>77</ele>
<time>2017-10-08T14:16:37Z</time>
</trkpt>
<trkpt lat="54.0078932" lon="15.9781996">
<ele>77</ele>
<time>2017-10-08T14:16:43Z</time>
</trkpt>
<trkpt lat="54.0078932" lon="15.9781996">
<ele>77</ele>
<time>2017-10-08T14:16:49Z</time>
</trkpt>
<trkpt lat="54.0078932" lon="15.9781996">
<ele>77</ele>
<time>2017-10-08T14:16:55Z</time>
</trkpt>
<trkpt lat="54.0078932" lon="15.9781996">
<ele>77</ele>
<time>2017-10-08T14:17:01Z</time>
</trkpt>
<trkpt lat="54.0078932" lon="15.9781996">
<ele>77</ele>
<time>2017-10-08T14:17:07Z</time>
</trkpt>
<trkpt lat="54.0078932" lon="15.9781996">
<ele>77</ele>
<time>2017-10-08T14:17:13Z</time>
</trkpt>
<trkpt lat="54.0078932" lon="15.9781996">
<ele>77</ele>
<time>2017-10-08T14:17:19Z</time>
</trkpt>
<trkpt lat="54.0078932" lon="15.9781996">
<ele>77</ele>
<time>2017-10-08T14:17:25Z</time>
</trkpt>
<trkpt lat="54.0078932" lon="15.9781996">
<ele>77</ele>
<time>2017-10-08T14:17:31Z</time>
</trkpt>
<trkpt lat="54.0078932" lon="15.9781996">
<ele>77</ele>
<time>2017-10-08T14:17:37Z</time>
</trkpt>
<trkpt lat="54.0078932" lon="15.9781996">
<ele>77</ele>
<time>2017-10-08T14:17:43Z</time>
</trkpt>
<trkpt lat="54.0078932" lon="15.9781996">
<ele>77</ele>
<time>2017-10-08T14:17:49Z</time>
</trkpt>
<trkpt lat="54.0078932" lon="15.9781996">
<ele>77</ele>
<time>2017-10-08T14:17:55Z</time>
</trkpt>
<trkpt lat="54.0078932" lon="15.9781996">
<ele>77</ele>
<time>2017-10-08T14:18:01Z</time>
</trkpt>
<trkpt lat="54.0078932" lon="15.9781996">
<ele>77</ele>
<time>2017-10-08T14:18:07Z</time>
</trkpt>
<trkpt lat="54.0078932" lon="15.9781996">
<ele>77</ele>
<time>2017-10-08T14:18:13Z</time>
</trkpt>
<trkpt lat="54.0078932" lon="15.9781996">
<ele>77</ele>
<time>2017-10-08T14:18:19Z</time>
</trkpt>
<trkpt lat="54.0078932" lon="15.9781996">
<ele>77</ele>
<time>2017-10-08T14:18:25Z</time>
</trkpt>
<trkpt lat="54.0078932" lon="15.9781996">
<ele>77</ele>
<time>2017-10-08T14:18:31Z</time>
</trkpt>
<trkpt lat="54.0078932" lon="15.9781996">
<ele>77</ele>
<time>2017-10-08T14:18:37Z</time>
</trkpt>
<trkpt lat="54.0078932" lon="15.9781996">
<ele>77</ele>
<time>2017-10-08T14:18:43Z</time>
</trkpt>
<trkpt lat="54.0078932" lon="15.9781996">
<ele>77</ele>
<time>2017-10-08T14:18:49Z</time>
</trkpt>
<trkpt lat="54.0078932" lon="15.9781996">
<ele>77</ele>
<time>2017-10-08T14:18:55Z</time>
</trkpt>
<trkpt lat="54.0078932" lon="15.9781996">
<ele>77</ele>
<time>2017-10-08T14:19:01Z</time>
</trkpt>
<trkpt lat="54.0078932" lon="15.9781996">
<ele>77</ele>
<time>2017-10-08T14:19:07Z</time>
</trkpt>
<trkpt lat="54.0078932" lon="15.9781996">
<ele>77</ele>
<time>2017-10-08T14:19:13Z</time>
</trkpt>
<trkpt lat="54.0078932" lon="15.9781996">
<ele>77</ele>
<time>2017-10-08T14:19:19Z</time>
</trkpt>
<trkpt lat="54.0078932" lon="15.9781996">
<ele>77</ele>
<time>2017-10-08T14:19:25Z</time>
</trkpt>
<trkpt lat="54.0078932" lon="15.9781996">
<ele>77</ele>
<time>2017-10-08T14:19:31Z</time>
</trkpt>
<trkpt lat="54.0078932" lon="15.9781996">
<ele>77</ele>
<time>2017-10-08T14:19:37Z</time>
</trkpt>
<trkpt lat="54.0078951" lon="15.9782740">
<ele>77</ele>
<time>2017-10-08T14:19:43Z</time>
</trkpt>
<trkpt lat="54.0078972" lon="15.9782825">
<ele>76</ele>
<time>2017-10-08T14:19:49Z</time>
</trkpt>
<trkpt lat="54.0078800" lon="15.9782166">
<ele>75</ele>
<time>2017-10-08T14:19:55Z</time>
</trkpt>
<trkpt lat="54.0077830" lon="15.9782416">
<ele>73</ele>
<time>2017-10-08T14:20:01Z</time>
</trkpt>
<trkpt lat="54.0076233" lon="15.9783193">
<ele>71</ele>
<time>2017-10-08T14:20:07Z</time>
</trkpt>
<trkpt lat="54.0074233" lon="15.9782802">
<ele>68</ele>
<time>2017-10-08T14:20:13Z</time>
</trkpt>
<trkpt lat="54.0072640" lon="15.9781296">
<ele>67</ele>
<time>2017-10-08T14:20:19Z</time>
</trkpt>
<trkpt lat="54.0070872" lon="15.9782013">
<ele>67</ele>
<time>2017-10-08T14:20:25Z</time>
</trkpt>
<trkpt lat="54.0068323" lon="15.9783370">
<ele>64</ele>
<time>2017-10-08T14:20:31Z</time>
</trkpt>
<trkpt lat="54.0065975" lon="15.9784573">
<ele>62</ele>
<time>2017-10-08T14:20:37Z</time>
</trkpt>
<trkpt lat="54.0064355" lon="15.9785172">
<ele>61</ele>
<time>2017-10-08T14:20:43Z</time>
</trkpt>
<trkpt lat="54.0062303" lon="15.9784682">
<ele>57</ele>
<time>2017-10-08T14:20:49Z</time>
</trkpt>
<trkpt lat="54.0058647" lon="15.9782619">
<ele>55</ele>
<time>2017-10-08T14:20:55Z</time>
</trkpt>
<trkpt lat="54.0053882" lon="15.9784322">
<ele>53</ele>
<time>2017-10-08T14:21:01Z</time>
</trkpt>
<trkpt lat="54.0049087" lon="15.9791190">
<ele>52</ele>
<time>2017-10-08T14:21:07Z</time>
</trkpt>
<trkpt lat="54.0043116" lon="15.9799034">
<ele>49</ele>
<time>2017-10-08T14:21:13Z</time>
</trkpt>
<trkpt lat="54.0036683" lon="15.9806805">
<ele>50</ele>
<time>2017-10-08T14:21:19Z</time>
</trkpt>
<trkpt lat="54.0033957" lon="15.9816120">
<ele>51</ele>
<time>2017-10-08T14:21:25Z</time>
</trkpt>
<trkpt lat="54.0033365" lon="15.9818628">
<ele>57</ele>
<time>2017-10-08T14:21:31Z</time>
</trkpt>
<trkpt lat="54.0033521" lon="15.9818406">
<ele>58</ele>
<time>2017-10-08T14:21:37Z</time>
</trkpt>
<trkpt lat="54.0033283" lon="15.9819702">
<ele>58</ele>
<time>2017-10-08T14:21:43Z</time>
</trkpt>
<trkpt lat="54.0034372" lon="15.9822205">
<ele>59</ele>
<time>2017-10-08T14:21:49Z</time>
</trkpt>
<trkpt lat="54.0036732" lon="15.9824792">
<ele>60</ele>
<time>2017-10-08T14:21:55Z</time>
</trkpt>
<trkpt lat="54.0038945" lon="15.9827364">
<ele>62</ele>
<time>2017-10-08T14:22:01Z</time>
</trkpt>
<trkpt lat="54.0039406" lon="15.9827808">
<ele>63</ele>
<time>2017-10-08T14:22:07Z</time>
</trkpt>
<trkpt lat="54.0039459" lon="15.9827919">
<ele>63</ele>
<time>2017-10-08T14:22:13Z</time>
</trkpt>
<trkpt lat="54.0038852" lon="15.9832227">
<ele>61</ele>
<time>2017-10-08T14:22:19Z</time>
</trkpt>
<trkpt lat="54.0036623" lon="15.9840081">
<ele>63</ele>
<time>2017-10-08T14:22:25Z</time>
</trkpt>
<trkpt lat="54.0033091" lon="15.9850947">
<ele>63</ele>
<time>2017-10-08T14:22:31Z</time>
</trkpt>
<trkpt lat="54.0028206" lon="15.9862084">
<ele>64</ele>
<time>2017-10-08T14:22:37Z</time>
</trkpt>
<trkpt lat="54.0020714" lon="15.9871032">
<ele>64</ele>
<time>2017-10-08T14:22:43Z</time>
</trkpt>
<trkpt lat="54.0012635" lon="15.9879528">
<ele>63</ele>
<time>2017-10-08T14:22:49Z</time>
</trkpt>
<trkpt lat="54.0004200" lon="15.9889035">
<ele>61</ele>
<time>2017-10-08T14:22:55Z</time>
</trkpt>
<trkpt lat="53.9997080" lon="15.9899472">
<ele>61</ele>
<time>2017-10-08T14:23:01Z</time>
</trkpt>
<trkpt lat="53.9991819" lon="15.9910597">
<ele>60</ele>
<time>2017-10-08T14:23:07Z</time>
</trkpt>
<trkpt lat="53.9988044" lon="15.9921365">
<ele>59</ele>
<time>2017-10-08T14:23:13Z</time>
</trkpt>
<trkpt lat="53.9985477" lon="15.9929628">
<ele>59</ele>
<time>2017-10-08T14:23:19Z</time>
</trkpt>
<trkpt lat="53.9984847" lon="15.9932192">
<ele>59</ele>
<time>2017-10-08T14:23:25Z</time>
</trkpt>
<trkpt lat="53.9983020" lon="15.9933971">
<ele>58</ele>
<time>2017-10-08T14:23:31Z</time>
</trkpt>
<trkpt lat="53.9981871" lon="15.9939244">
<ele>57</ele>
<time>2017-10-08T14:23:37Z</time>
</trkpt>
<trkpt lat="53.9979916" lon="15.9945496">
<ele>57</ele>
<time>2017-10-08T14:23:43Z</time>
</trkpt>
<trkpt lat="53.9975874" lon="15.9954469">
<ele>55</ele>
<time>2017-10-08T14:23:49Z</time>
</trkpt>
<trkpt lat="53.9971004" lon="15.9965540">
<ele>56</ele>
<time>2017-10-08T14:23:55Z</time>
</trkpt>
<trkpt lat="53.9965725" lon="15.9977173">
<ele>56</ele>
<time>2017-10-08T14:24:01Z</time>
</trkpt>
<trkpt lat="53.9961049" lon="15.9987893">
<ele>57</ele>
<time>2017-10-08T14:24:07Z</time>
</trkpt>
<trkpt lat="53.9956517" lon="15.9998332">
<ele>57</ele>
<time>2017-10-08T14:24:13Z</time>
</trkpt>
<trkpt lat="53.9951988" lon="16.0008285">
<ele>57</ele>
<time>2017-10-08T14:24:19Z</time>
</trkpt>
<trkpt lat="53.9947539" lon="16.0018270">
<ele>57</ele>
<time>2017-10-08T14:24:25Z</time>
</trkpt>
<trkpt lat="53.9943148" lon="16.0028357">
<ele>56</ele>
<time>2017-10-08T14:24:31Z</time>
</trkpt>
<trkpt lat="53.9938375" lon="16.0037853">
<ele>56</ele>
<time>2017-10-08T14:24:37Z</time>
</trkpt>
<trkpt lat="53.9933056" lon="16.0047282">
<ele>56</ele>
<time>2017-10-08T14:24:43Z</time>
</trkpt>
<trkpt lat="53.9927391" lon="16.0056715">
<ele>56</ele>
<time>2017-10-08T14:24:49Z</time>
</trkpt>
<trkpt lat="53.9921542" lon="16.0066524">
<ele>56</ele>
<time>2017-10-08T14:24:55Z</time>
</trkpt>
<trkpt lat="53.9915525" lon="16.0076745">
<ele>55</ele>
<time>2017-10-08T14:25:01Z</time>
</trkpt>
<trkpt lat="53.9909719" lon="16.0086690">
<ele>54</ele>
<time>2017-10-08T14:25:07Z</time>
</trkpt>
<trkpt lat="53.9903854" lon="16.0096837">
<ele>54</ele>
<time>2017-10-08T14:25:13Z</time>
</trkpt>
<trkpt lat="53.9898031" lon="16.0107226">
<ele>53</ele>
<time>2017-10-08T14:25:19Z</time>
</trkpt>
<trkpt lat="53.9891981" lon="16.0117907">
<ele>52</ele>
<time>2017-10-08T14:25:25Z</time>
</trkpt>
<trkpt lat="53.9885589" lon="16.0128823">
<ele>53</ele>
<time>2017-10-08T14:25:31Z</time>
</trkpt>
<trkpt lat="53.9878924" lon="16.0140157">
<ele>53</ele>
<time>2017-10-08T14:25:37Z</time>
</trkpt>
<trkpt lat="53.9871574" lon="16.0152550">
<ele>54</ele>
<time>2017-10-08T14:25:43Z</time>
</trkpt>
<trkpt lat="53.9863677" lon="16.0166163">
<ele>55</ele>
<time>2017-10-08T14:25:49Z</time>
</trkpt>
<trkpt lat="53.9855963" lon="16.0181375">
<ele>55</ele>
<time>2017-10-08T14:25:55Z</time>
</trkpt>
<trkpt lat="53.9848200" lon="16.0196777">
<ele>54</ele>
<time>2017-10-08T14:26:01Z</time>
</trkpt>
<trkpt lat="53.9840468" lon="16.0212231">
<ele>55</ele>
<time>2017-10-08T14:26:07Z</time>
</trkpt>
<trkpt lat="53.9832886" lon="16.0227683">
<ele>54</ele>
<time>2017-10-08T14:26:13Z</time>
</trkpt>
<trkpt lat="53.9825145" lon="16.0243251">
<ele>54</ele>
<time>2017-10-08T14:26:19Z</time>
</trkpt>
<trkpt lat="53.9817437" lon="16.0258638">
<ele>54</ele>
<time>2017-10-08T14:26:25Z</time>
</trkpt>
<trkpt lat="53.9809599" lon="16.0274201">
<ele>54</ele>
<time>2017-10-08T14:26:31Z</time>
</trkpt>
<trkpt lat="53.9801932" lon="16.0289976">
<ele>54</ele>
<time>2017-10-08T14:26:37Z</time>
</trkpt>
<trkpt lat="53.9794343" lon="16.0305244">
<ele>54</ele>
<time>2017-10-08T14:26:43Z</time>
</trkpt>
<trkpt lat="53.9786912" lon="16.0320134">
<ele>56</ele>
<time>2017-10-08T14:26:49Z</time>
</trkpt>
<trkpt lat="53.9774553" lon="16.0343953">
<ele>56</ele>
<time>2017-10-08T14:27:01Z</time>
</trkpt>
<trkpt lat="53.9780404" lon="16.0332806">
<ele>58</ele>
<time>2017-10-08T14:26:55Z</time>
</trkpt>
<trkpt lat="53.9769546" lon="16.0353703">
<ele>56</ele>
<time>2017-10-08T14:27:07Z</time>
</trkpt>
<trkpt lat="53.9764238" lon="16.0364020">
<ele>57</ele>
<time>2017-10-08T14:27:13Z</time>
</trkpt>
<trkpt lat="53.9758717" lon="16.0374902">
<ele>57</ele>
<time>2017-10-08T14:27:19Z</time>
</trkpt>
<trkpt lat="53.9753107" lon="16.0385706">
<ele>57</ele>
<time>2017-10-08T14:27:25Z</time>
</trkpt>
<trkpt lat="53.9746469" lon="16.0393828">
<ele>58</ele>
<time>2017-10-08T14:27:31Z</time>
</trkpt>
<trkpt lat="53.9738588" lon="16.0401978">
<ele>60</ele>
<time>2017-10-08T14:27:37Z</time>
</trkpt>
<trkpt lat="53.9729806" lon="16.0411271">
<ele>61</ele>
<time>2017-10-08T14:27:43Z</time>
</trkpt>
<trkpt lat="53.9720297" lon="16.0420847">
<ele>61</ele>
<time>2017-10-08T14:27:49Z</time>
</trkpt>
<trkpt lat="53.9710508" lon="16.0431159">
<ele>61</ele>
<time>2017-10-08T14:27:55Z</time>
</trkpt>
<trkpt lat="53.9700633" lon="16.0441882">
<ele>63</ele>
<time>2017-10-08T14:28:01Z</time>
</trkpt>
<trkpt lat="53.9690498" lon="16.0452981">
<ele>65</ele>
<time>2017-10-08T14:28:07Z</time>
</trkpt>
<trkpt lat="53.966" lon="16.0485">
<ele>65</ele>
<time>2017-10-08T14:28:25Z</time>
</trkpt>
<trkpt lat="53.9649" lon="16.0495">
<ele>64</ele>
<time>2017-10-08T14:28:31Z</time>
</trkpt>
<trkpt lat="53.9639" lon="16.0506">
<ele>62</ele>
<time>2017-10-08T14:28:37Z</time>
</trkpt>
<trkpt lat="53.9628905" lon="16.0516593">
<ele>61</ele>
<time>2017-10-08T14:28:43Z</time>
</trkpt>
<trkpt lat="53.9618216" lon="16.0527309">
<ele>60</ele>
<time>2017-10-08T14:28:49Z</time>
</trkpt>
<trkpt lat="53.9607475" lon="16.0537671">
<ele>60</ele>
<time>2017-10-08T14:28:55Z</time>
</trkpt>
<trkpt lat="53.9596939" lon="16.0549242">
<ele>59</ele>
<time>2017-10-08T14:29:01Z</time>
</trkpt>
<trkpt lat="53.9586171" lon="16.0560133">
<ele>58</ele>
<time>2017-10-08T14:29:07Z</time>
</trkpt>
<trkpt lat="53.9575562" lon="16.0571006">
<ele>61</ele>
<time>2017-10-08T14:29:13Z</time>
</trkpt>
<trkpt lat="53.9564919" lon="16.0579007">
<ele>62</ele>
<time>2017-10-08T14:29:19Z</time>
</trkpt>
<trkpt lat="53.9552852" lon="16.0584290">
<ele>64</ele>
<time>2017-10-08T14:29:25Z</time>
</trkpt>
<trkpt lat="53.9541725" lon="16.0589673">
<ele>65</ele>
<time>2017-10-08T14:29:31Z</time>
</trkpt>
<trkpt lat="53.9532738" lon="16.0594581">
<ele>68</ele>
<time>2017-10-08T14:29:37Z</time>
</trkpt>
<trkpt lat="53.9524388" lon="16.0598845">
<ele>68</ele>
<time>2017-10-08T14:29:43Z</time>
</trkpt>
<trkpt lat="53.9516096" lon="16.0603092">
<ele>66</ele>
<time>2017-10-08T14:29:49Z</time>
</trkpt>
<trkpt lat="53.9507782" lon="16.0607400">
<ele>63</ele>
<time>2017-10-08T14:29:55Z</time>
</trkpt>
<trkpt lat="53.9500349" lon="16.0611428">
<ele>64</ele>
<time>2017-10-08T14:30:01Z</time>
</trkpt>
<trkpt lat="53.9493120" lon="16.0615245">
<ele>64</ele>
<time>2017-10-08T14:30:07Z</time>
</trkpt>
<trkpt lat="53.9485726" lon="16.0615664">
<ele>65</ele>
<time>2017-10-08T14:30:13Z</time>
</trkpt>
<trkpt lat="53.9479359" lon="16.0612238">
<ele>66</ele>
<time>2017-10-08T14:30:19Z</time>
</trkpt>
<trkpt lat="53.9475260" lon="16.0609570">
<ele>67</ele>
<time>2017-10-08T14:30:25Z</time>
</trkpt>
<trkpt lat="53.9473160" lon="16.0613327">
<ele>66</ele>
<time>2017-10-08T14:30:31Z</time>
</trkpt>
<trkpt lat="53.9471266" lon="16.0621548">
<ele>66</ele>
<time>2017-10-08T14:30:37Z</time>
</trkpt>
<trkpt lat="53.9468950" lon="16.0632437">
<ele>69</ele>
<time>2017-10-08T14:30:43Z</time>
</trkpt>
<trkpt lat="53.9465982" lon="16.0644913">
<ele>70</ele>
<time>2017-10-08T14:30:49Z</time>
</trkpt>
<trkpt lat="53.9460649" lon="16.0658855">
<ele>72</ele>
<time>2017-10-08T14:30:55Z</time>
</trkpt>
<trkpt lat="53.9454751" lon="16.0671802">
<ele>74</ele>
<time>2017-10-08T14:31:01Z</time>
</trkpt>
<trkpt lat="53.9442571" lon="16.0701010">
<ele>76</ele>
<time>2017-10-08T14:31:13Z</time>
</trkpt>
<trkpt lat="53.9435833" lon="16.0716722">
<ele>77</ele>
<time>2017-10-08T14:31:19Z</time>
</trkpt>
<trkpt lat="53.9428777" lon="16.0732901">
<ele>79</ele>
<time>2017-10-08T14:31:25Z</time>
</trkpt>
<trkpt lat="53.9421560" lon="16.0749463">
<ele>80</ele>
<time>2017-10-08T14:31:31Z</time>
</trkpt>
<trkpt lat="53.9414222" lon="16.0766525">
<ele>81</ele>
<time>2017-10-08T14:31:37Z</time>
</trkpt>
<trkpt lat="53.9399664" lon="16.0799855">
<ele>79</ele>
<time>2017-10-08T14:31:49Z</time>
</trkpt>
<trkpt lat="53.9392194" lon="16.0817170">
<ele>79</ele>
<time>2017-10-08T14:31:55Z</time>
</trkpt>
<trkpt lat="53.9384878" lon="16.0834424">
<ele>79</ele>
<time>2017-10-08T14:32:01Z</time>
</trkpt>
<trkpt lat="53.9362" lon="16.0886">
<ele>77</ele>
<time>2017-10-08T14:32:19Z</time>
</trkpt>
<trkpt lat="53.9354" lon="16.0904">
<ele>75</ele>
<time>2017-10-08T14:32:25Z</time>
</trkpt>
<trkpt lat="53.9347" lon="16.0922">
<ele>74</ele>
<time>2017-10-08T14:32:31Z</time>
</trkpt>
<trkpt lat="53.9342" lon="16.0943">
<ele>73</ele>
<time>2017-10-08T14:32:37Z</time>
</trkpt>
<trkpt lat="53.9339" lon="16.0963">
<ele>72</ele>
<time>2017-10-08T14:32:43Z</time>
</trkpt>
<trkpt lat="53.9337" lon="16.0986">
<ele>74</ele>
<time>2017-10-08T14:32:49Z</time>
</trkpt>
<trkpt lat="53.9337" lon="16.1007">
<ele>76</ele>
<time>2017-10-08T14:32:55Z</time>
</trkpt>
<trkpt lat="53.9336" lon="16.1029">
<ele>80</ele>
<time>2017-10-08T14:33:01Z</time>
</trkpt>
<trkpt lat="53.9335887" lon="16.1050193">
<ele>81</ele>
<time>2017-10-08T14:33:07Z</time>
</trkpt>
<trkpt lat="53.9335484" lon="16.1071902">
<ele>81</ele>
<time>2017-10-08T14:33:13Z</time>
</trkpt>
<trkpt lat="53.9334852" lon="16.1093320">
<ele>82</ele>
<time>2017-10-08T14:33:19Z</time>
</trkpt>
<trkpt lat="53.9335725" lon="16.1113972">
<ele>82</ele>
<time>2017-10-08T14:33:25Z</time>
</trkpt>
<trkpt lat="53.934" lon="16.1177">
<ele>84</ele>
<time>2017-10-08T14:33:43Z</time>
</trkpt>
<trkpt lat="53.9339" lon="16.1198">
<ele>86</ele>
<time>2017-10-08T14:33:49Z</time>
</trkpt>
<trkpt lat="53.9339" lon="16.122">
<ele>88</ele>
<time>2017-10-08T14:33:55Z</time>
</trkpt>
<trkpt lat="53.9338479" lon="16.1240446">
<ele>88</ele>
<time>2017-10-08T14:34:01Z</time>
</trkpt>
<trkpt lat="53.9337941" lon="16.1261595">
<ele>87</ele>
<time>2017-10-08T14:34:07Z</time>
</trkpt>
<trkpt lat="53.9336" lon="16.1325">
<ele>91</ele>
<time>2017-10-08T14:34:25Z</time>
</trkpt>
<trkpt lat="53.9336" lon="16.1345">
<ele>91</ele>
<time>2017-10-08T14:34:31Z</time>
</trkpt>
<trkpt lat="53.9335" lon="16.1366">
<ele>90</ele>
<time>2017-10-08T14:34:37Z</time>
</trkpt>
<trkpt lat="53.9334654" lon="16.1385419">
<ele>91</ele>
<time>2017-10-08T14:34:43Z</time>
</trkpt>
<trkpt lat="53.9334054" lon="16.1405345">
<ele>91</ele>
<time>2017-10-08T14:34:49Z</time>
</trkpt>
<trkpt lat="53.9335" lon="16.1447">
<ele>92</ele>
<time>2017-10-08T14:35:07Z</time>
</trkpt>
<trkpt lat="53.9333" lon="16.1456">
<ele>92</ele>
<time>2017-10-08T14:35:13Z</time>
</trkpt>
<trkpt lat="53.9333" lon="16.147">
<ele>90</ele>
<time>2017-10-08T14:35:19Z</time>
</trkpt>
<trkpt lat="53.9332496" lon="16.1485505">
<ele>92</ele>
<time>2017-10-08T14:35:25Z</time>
</trkpt>
<trkpt lat="53.9331" lon="16.1542">
<ele>96</ele>
<time>2017-10-08T14:35:43Z</time>
</trkpt>
<trkpt lat="53.9331" lon="16.1563">
<ele>96</ele>
<time>2017-10-08T14:35:49Z</time>
</trkpt>
<trkpt lat="53.933" lon="16.1584">
<ele>97</ele>
<time>2017-10-08T14:35:55Z</time>
</trkpt>
<trkpt lat="" lon="">
<ele></ele>
<time>2017-10-08TZ</time>
</trkpt>
</trkseg>
</trk>
<wpt lat="" lon="">
	<name></name>
	<desc></desc>
	<cmt></cmt>
	<photoid></photoid>
	<type></type>
</wpt>
</gpx>
